Rorichmoor — V2BV7 — position and weather

sailwx.info

Track history (hours):
 
Tides and Currents Weather Stations Pressure Air Temp Water Temp Dewpoint Dewpoint Depression Visibility Wind Speed Wind Dir Waves Ship Positions

Rorichmoor

Last reported at 2015-Jan-26 17:28 UTC. Time now 2015-Jan-27 12:32 UTC.
Position N 40°38' E 013°30'.

Length 80 m; draft 3.5 m.

Type: Cargo ship. MMSI: 304938000.

Date/timePositionNaut miles runAvg speedWind from/ knotsBaromVisibWave heightAir tempDewpointWater temp
2015-Jan-26 17:28N 40°38' E 013°30'20 9.9
2015-Jan-26 15:26N 40°33' E 013°56'23 0.7
2015-Jan-25 05:28N 40°32' E 014°26'9 7.2
2015-Jan-25 04:09N 40°30' E 014°14'5 7.9
2015-Jan-25 03:32N 40°31' E 014°07'8 8.4
2015-Jan-25 02:32N 40°33' E 013°57'11 9.0
2015-Jan-25 01:19N 40°36' E 013°43'  
2015-Jan-22 08:08N 43°08' E 005°12'13 8.4
2015-Jan-22 06:33N 43°17' E 004°59'8 8.4
2015-Jan-22 05:33N 43°24' E 004°53'1 1.3
2015-Jan-22 04:31N 43°26' E 004°53'0 0.0
2015-Jan-22 03:31N 43°26' E 004°53'0 0.0
2015-Jan-22 02:31N 43°26' E 004°53'0 0.0
2015-Jan-22 01:31N 43°26' E 004°53'0 0.0
2015-Jan-22 00:28N 43°26' E 004°53'0 0.0
2015-Jan-21 23:28N 43°26' E 004°53'0 0.0
2015-Jan-21 22:49N 43°26' E 004°53'0 0.0
2015-Jan-21 22:46N 43°26' E 004°53'0 0.0
2015-Jan-21 22:31N 43°26' E 004°53'0 0.0
2015-Jan-21 21:28N 43°26' E 004°53'0 0.0
2015-Jan-21 20:31N 43°26' E 004°53'0 0.0
2015-Jan-21 19:28N 43°26' E 004°53'0 0.0
2015-Jan-21 18:31N 43°26' E 004°53'0 0.0
2015-Jan-21 17:31N 43°26' E 004°53'0 0.0
2015-Jan-21 16:25N 43°26' E 004°53'0 0.0
2015-Jan-21 15:28N 43°26' E 004°53'0 0.0
2015-Jan-21 14:28N 43°26' E 004°53'0 0.0
2015-Jan-21 13:28N 43°26' E 004°53'0 0.0
2015-Jan-21 12:22N 43°26' E 004°53'0 0.0
2015-Jan-21 11:31N 43°26' E 004°53'0 0.0
2015-Jan-21 10:28N 43°26' E 004°53'0 0.0
2015-Jan-21 09:25N 43°26' E 004°53'0 0.0
2015-Jan-21 08:31N 43°26' E 004°53'0 0.0
2015-Jan-21 07:25N 43°26' E 004°53'0 0.0
2015-Jan-21 06:25N 43°26' E 004°53'0 0.0
2015-Jan-21 05:22N 43°26' E 004°53'0 0.0
2015-Jan-21 04:31N 43°26' E 004°53'0 0.0
2015-Jan-21 03:31N 43°26' E 004°53'0 0.0
2015-Jan-21 02:31N 43°26' E 004°53'0 0.0
2015-Jan-21 01:28N 43°26' E 004°53'0 0.0
2015-Jan-21 00:31N 43°26' E 004°53'0 0.0
2015-Jan-20 23:31N 43°26' E 004°53'0 0.0
2015-Jan-20 22:31N 43°26' E 004°53'0 0.0
2015-Jan-20 21:31N 43°26' E 004°53'0 0.0
2015-Jan-20 20:31N 43°26' E 004°53'0 0.0
2015-Jan-20 19:31N 43°26' E 004°53'0 0.0
2015-Jan-20 18:31N 43°26' E 004°53'0 0.0
2015-Jan-20 17:28N 43°26' E 004°53'0 0.0
2015-Jan-20 16:31N 43°26' E 004°53'0 0.0
2015-Jan-20 15:31N 43°26' E 004°53'0 0.0
2015-Jan-20 14:28N 43°26' E 004°53'0 0.0
2015-Jan-20 13:28N 43°26' E 004°53'0 0.0
2015-Jan-20 12:13N 43°26' E 004°53'0 0.0
2015-Jan-20 11:31N 43°26' E 004°53'0 0.0
2015-Jan-20 10:31N 43°26' E 004°53'0 0.0
2015-Jan-20 09:28N 43°26' E 004°53'0 0.0
2015-Jan-20 08:31N 43°26' E 004°53'0 0.0
2015-Jan-20 07:28N 43°26' E 004°53'0 0.0
2015-Jan-20 06:31N 43°26' E 004°53'0 0.0
2015-Jan-20 05:31N 43°26' E 004°53'0 0.0
2015-Jan-20 04:16N 43°26' E 004°53'0 0.0
2015-Jan-20 03:33N 43°26' E 004°53'1 1.4
2015-Jan-20 02:33N 43°25' E 004°55'0 0.0
2015-Jan-20 01:25N 43°25' E 004°55'0 0.0
2015-Jan-20 00:33N 43°25' E 004°55'0 0.0
2015-Jan-19 23:33N 43°25' E 004°55'0 0.1
2015-Jan-19 22:33N 43°25' E 004°55'0 0.1
2015-Jan-19 21:33N 43°25' E 004°55'0 0.0
2015-Jan-19 20:33N 43°25' E 004°55'0 0.0
2015-Jan-19 19:33N 43°25' E 004°55'0 0.0
2015-Jan-19 18:33N 43°25' E 004°55'0 0.0
2015-Jan-19 17:33N 43°25' E 004°55'0 0.0
2015-Jan-19 16:33N 43°25' E 004°55'0 0.0
2015-Jan-19 15:33N 43°25' E 004°55'0 0.0
2015-Jan-19 14:33N 43°25' E 004°55'0 0.0
2015-Jan-19 13:33N 43°25' E 004°55'0 0.1
2015-Jan-19 12:33N 43°25' E 004°55'0 0.1
2015-Jan-19 11:33N 43°25' E 004°55'0 0.0
2015-Jan-19 10:33N 43°25' E 004°55'0 0.1
2015-Jan-19 09:33N 43°25' E 004°55'0 0.0
2015-Jan-19 08:33N 43°25' E 004°55'0 0.0
2015-Jan-19 07:33N 43°25' E 004°55'0 0.1
2015-Jan-19 06:33N 43°25' E 004°55'0 0.1
2015-Jan-19 05:21N 43°25' E 004°55'0 0.1
2015-Jan-19 04:33N 43°25' E 004°55'0 0.1
2015-Jan-19 03:33N 43°25' E 004°55'0 0.0
2015-Jan-19 02:33N 43°25' E 004°55'0 0.1
2015-Jan-19 01:33N 43°25' E 004°55'0 0.0
2015-Jan-19 00:33N 43°25' E 004°55'0 0.1
2015-Jan-18 23:33N 43°25' E 004°55'0 0.1
2015-Jan-18 22:33N 43°25' E 004°55'0 0.0
2015-Jan-18 21:33N 43°25' E 004°55'0 0.0
2015-Jan-18 20:33N 43°25' E 004°55'0 0.0
2015-Jan-18 19:33N 43°25' E 004°55'0 0.0
2015-Jan-18 18:33N 43°25' E 004°55'0 0.0
2015-Jan-18 17:33N 43°25' E 004°55'0 0.0
2015-Jan-18 16:33N 43°25' E 004°55'0 0.0
2015-Jan-18 15:33N 43°25' E 004°55'0 0.0
2015-Jan-18 14:33N 43°25' E 004°55'0 0.1
2015-Jan-18 13:33N 43°25' E 004°55'0 0.0
2015-Jan-18 12:33N 43°25' E 004°55'0 0.0
2015-Jan-18 11:33N 43°25' E 004°55'0 0.0
2015-Jan-18 10:33N 43°25' E 004°55'0 0.0
2015-Jan-18 09:33N 43°25' E 004°55'0 0.1
2015-Jan-18 08:30N 43°24' E 004°55'0 0.0
2015-Jan-18 07:27N 43°24' E 004°55'0 0.0
2015-Jan-18 06:33N 43°24' E 004°55'0 0.0
2015-Jan-18 05:33N 43°24' E 004°55'0 0.0
2015-Jan-18 04:33N 43°25' E 004°55'0 0.0
2015-Jan-18 03:33N 43°25' E 004°55'0 0.0
2015-Jan-18 02:33N 43°24' E 004°55'0 0.0
2015-Jan-18 01:33N 43°24' E 004°55'0 0.0
2015-Jan-18 00:33N 43°24' E 004°55'0 0.0
2015-Jan-17 23:33N 43°24' E 004°55'0 0.0
2015-Jan-17 22:27N 43°24' E 004°55'0 0.0
2015-Jan-17 21:33N 43°24' E 004°55'0 0.0
2015-Jan-17 20:33N 43°24' E 004°55'0 0.0
2015-Jan-17 19:33N 43°24' E 004°55'0 0.0
2015-Jan-17 18:33N 43°24' E 004°55'0 0.0
2015-Jan-17 17:33N 43°24' E 004°55'0 0.0
2015-Jan-17 16:33N 43°24' E 004°55'0 0.0
2015-Jan-17 15:33N 43°24' E 004°55'0 0.0
2015-Jan-17 14:27N 43°24' E 004°55'0 0.0
2015-Jan-17 13:33N 43°24' E 004°55'0 0.0
2015-Jan-17 12:33N 43°25' E 004°55'0 0.0
2015-Jan-17 11:33N 43°24' E 004°55'0 0.0
2015-Jan-17 10:33N 43°25' E 004°55'0 0.0
2015-Jan-17 09:27N 43°25' E 004°55'0 0.0
2015-Jan-17 08:33N 43°25' E 004°55'0 0.0
2015-Jan-17 07:33N 43°25' E 004°55'0 0.0
2015-Jan-17 06:33N 43°25' E 004°55'0 0.0
2015-Jan-17 05:27N 43°25' E 004°55'0 0.0
2015-Jan-17 04:33N 43°25' E 004°55'0 0.0
2015-Jan-17 03:30N 43°25' E 004°55'0 0.0
2015-Jan-17 02:33N 43°25' E 004°55'0 0.0
2015-Jan-17 01:33N 43°25' E 004°55'0 0.0
2015-Jan-17 00:24N 43°25' E 004°55'0 0.0
2015-Jan-16 23:33N 43°25' E 004°55'0 0.0
2015-Jan-16 22:33N 43°25' E 004°55'0 0.0
2015-Jan-16 21:33N 43°25' E 004°55'0 0.0
2015-Jan-16 20:33N 43°25' E 004°55'0 0.0
2015-Jan-16 19:33N 43°25' E 004°55'0 0.1
2015-Jan-16 18:33N 43°25' E 004°55'5 5.1
2015-Jan-16 17:34N 43°20' E 004°59'  
Track history (hours):
 
Tides and Currents Weather Stations Pressure Air Temp Water Temp Dewpoint Dewpoint Depression Visibility Wind Speed Wind Dir Waves Ship Positions

Rorichmoor

Last reported at 2015-Jan-26 17:28 UTC. Time now 2015-Jan-27 12:32 UTC.
Position N 40°38' E 013°30'.

Length 80 m; draft 3.5 m.

Type: Cargo ship. MMSI: 304938000.

Date/timePositionNaut miles runAvg speedWind from/ knotsBaromVisibWave heightAir tempDewpointWater temp
2015-Jan-26 17:28N 40°38' E 013°30'20 9.9
2015-Jan-26 15:26N 40°33' E 013°56'23 0.7
2015-Jan-25 05:28N 40°32' E 014°26'9 7.2
2015-Jan-25 04:09N 40°30' E 014°14'5 7.9
2015-Jan-25 03:32N 40°31' E 014°07'8 8.4
2015-Jan-25 02:32N 40°33' E 013°57'11 9.0
2015-Jan-25 01:19N 40°36' E 013°43'  
2015-Jan-22 08:08N 43°08' E 005°12'13 8.4
2015-Jan-22 06:33N 43°17' E 004°59'8 8.4
2015-Jan-22 05:33N 43°24' E 004°53'1 1.3
2015-Jan-22 04:31N 43°26' E 004°53'0 0.0
2015-Jan-22 03:31N 43°26' E 004°53'0 0.0
2015-Jan-22 02:31N 43°26' E 004°53'0 0.0
2015-Jan-22 01:31N 43°26' E 004°53'0 0.0
2015-Jan-22 00:28N 43°26' E 004°53'0 0.0
2015-Jan-21 23:28N 43°26' E 004°53'0 0.0
2015-Jan-21 22:49N 43°26' E 004°53'0 0.0
2015-Jan-21 22:46N 43°26' E 004°53'0 0.0
2015-Jan-21 22:31N 43°26' E 004°53'0 0.0
2015-Jan-21 21:28N 43°26' E 004°53'0 0.0
2015-Jan-21 20:31N 43°26' E 004°53'0 0.0
2015-Jan-21 19:28N 43°26' E 004°53'0 0.0
2015-Jan-21 18:31N 43°26' E 004°53'0 0.0
2015-Jan-21 17:31N 43°26' E 004°53'0 0.0
2015-Jan-21 16:25N 43°26' E 004°53'0 0.0
2015-Jan-21 15:28N 43°26' E 004°53'0 0.0
2015-Jan-21 14:28N 43°26' E 004°53'0 0.0
2015-Jan-21 13:28N 43°26' E 004°53'0 0.0
2015-Jan-21 12:22N 43°26' E 004°53'0 0.0
2015-Jan-21 11:31N 43°26' E 004°53'0 0.0
2015-Jan-21 10:28N 43°26' E 004°53'0 0.0
2015-Jan-21 09:25N 43°26' E 004°53'0 0.0
2015-Jan-21 08:31N 43°26' E 004°53'0 0.0
2015-Jan-21 07:25N 43°26' E 004°53'0 0.0
2015-Jan-21 06:25N 43°26' E 004°53'0 0.0
2015-Jan-21 05:22N 43°26' E 004°53'0 0.0
2015-Jan-21 04:31N 43°26' E 004°53'0 0.0
2015-Jan-21 03:31N 43°26' E 004°53'0 0.0
2015-Jan-21 02:31N 43°26' E 004°53'0 0.0
2015-Jan-21 01:28N 43°26' E 004°53'0 0.0
2015-Jan-21 00:31N 43°26' E 004°53'0 0.0
2015-Jan-20 23:31N 43°26' E 004°53'0 0.0
2015-Jan-20 22:31N 43°26' E 004°53'0 0.0
2015-Jan-20 21:31N 43°26' E 004°53'0 0.0
2015-Jan-20 20:31N 43°26' E 004°53'0 0.0
2015-Jan-20 19:31N 43°26' E 004°53'0 0.0
2015-Jan-20 18:31N 43°26' E 004°53'0 0.0
2015-Jan-20 17:28N 43°26' E 004°53'0 0.0
2015-Jan-20 16:31N 43°26' E 004°53'0 0.0
2015-Jan-20 15:31N 43°26' E 004°53'0 0.0
2015-Jan-20 14:28N 43°26' E 004°53'0 0.0
2015-Jan-20 13:28N 43°26' E 004°53'0 0.0
2015-Jan-20 12:13N 43°26' E 004°53'0 0.0
2015-Jan-20 11:31N 43°26' E 004°53'0 0.0
2015-Jan-20 10:31N 43°26' E 004°53'0 0.0
2015-Jan-20 09:28N 43°26' E 004°53'0 0.0
2015-Jan-20 08:31N 43°26' E 004°53'0 0.0
2015-Jan-20 07:28N 43°26' E 004°53'0 0.0
2015-Jan-20 06:31N 43°26' E 004°53'0 0.0
2015-Jan-20 05:31N 43°26' E 004°53'0 0.0
2015-Jan-20 04:16N 43°26' E 004°53'0 0.0
2015-Jan-20 03:33N 43°26' E 004°53'1 1.4
2015-Jan-20 02:33N 43°25' E 004°55'0 0.0
2015-Jan-20 01:25N 43°25' E 004°55'0 0.0
2015-Jan-20 00:33N 43°25' E 004°55'0 0.0
2015-Jan-19 23:33N 43°25' E 004°55'0 0.1
2015-Jan-19 22:33N 43°25' E 004°55'0 0.1
2015-Jan-19 21:33N 43°25' E 004°55'0 0.0
2015-Jan-19 20:33N 43°25' E 004°55'0 0.0
2015-Jan-19 19:33N 43°25' E 004°55'0 0.0
2015-Jan-19 18:33N 43°25' E 004°55'0 0.0
2015-Jan-19 17:33N 43°25' E 004°55'0 0.0
2015-Jan-19 16:33N 43°25' E 004°55'0 0.0
2015-Jan-19 15:33N 43°25' E 004°55'0 0.0
2015-Jan-19 14:33N 43°25' E 004°55'0 0.0
2015-Jan-19 13:33N 43°25' E 004°55'0 0.1
2015-Jan-19 12:33N 43°25' E 004°55'0 0.1
2015-Jan-19 11:33N 43°25' E 004°55'0 0.0
2015-Jan-19 10:33N 43°25' E 004°55'0 0.1
2015-Jan-19 09:33N 43°25' E 004°55'0 0.0
2015-Jan-19 08:33N 43°25' E 004°55'0 0.0
2015-Jan-19 07:33N 43°25' E 004°55'0 0.1
2015-Jan-19 06:33N 43°25' E 004°55'0 0.1
2015-Jan-19 05:21N 43°25' E 004°55'0 0.1
2015-Jan-19 04:33N 43°25' E 004°55'0 0.1
2015-Jan-19 03:33N 43°25' E 004°55'0 0.0
2015-Jan-19 02:33N 43°25' E 004°55'0 0.1
2015-Jan-19 01:33N 43°25' E 004°55'0 0.0
2015-Jan-19 00:33N 43°25' E 004°55'0 0.1
2015-Jan-18 23:33N 43°25' E 004°55'0 0.1
2015-Jan-18 22:33N 43°25' E 004°55'0 0.0
2015-Jan-18 21:33N 43°25' E 004°55'0 0.0
2015-Jan-18 20:33N 43°25' E 004°55'0 0.0
2015-Jan-18 19:33N 43°25' E 004°55'0 0.0
2015-Jan-18 18:33N 43°25' E 004°55'0 0.0
2015-Jan-18 17:33N 43°25' E 004°55'0 0.0
2015-Jan-18 16:33N 43°25' E 004°55'0 0.0
2015-Jan-18 15:33N 43°25' E 004°55'0 0.0
2015-Jan-18 14:33N 43°25' E 004°55'0 0.1
2015-Jan-18 13:33N 43°25' E 004°55'0 0.0
2015-Jan-18 12:33N 43°25' E 004°55'0 0.0
2015-Jan-18 11:33N 43°25' E 004°55'0 0.0
2015-Jan-18 10:33N 43°25' E 004°55'0 0.0
2015-Jan-18 09:33N 43°25' E 004°55'0 0.1
2015-Jan-18 08:30N 43°24' E 004°55'0 0.0
2015-Jan-18 07:27N 43°24' E 004°55'0 0.0
2015-Jan-18 06:33N 43°24' E 004°55'0 0.0
2015-Jan-18 05:33N 43°24' E 004°55'0 0.0
2015-Jan-18 04:33N 43°25' E 004°55'0 0.0
2015-Jan-18 03:33N 43°25' E 004°55'0 0.0
2015-Jan-18 02:33N 43°24' E 004°55'0 0.0
2015-Jan-18 01:33N 43°24' E 004°55'0 0.0
2015-Jan-18 00:33N 43°24' E 004°55'0 0.0
2015-Jan-17 23:33N 43°24' E 004°55'0 0.0
2015-Jan-17 22:27N 43°24' E 004°55'0 0.0
2015-Jan-17 21:33N 43°24' E 004°55'0 0.0
2015-Jan-17 20:33N 43°24' E 004°55'0 0.0
2015-Jan-17 19:33N 43°24' E 004°55'0 0.0
2015-Jan-17 18:33N 43°24' E 004°55'0 0.0
2015-Jan-17 17:33N 43°24' E 004°55'0 0.0
2015-Jan-17 16:33N 43°24' E 004°55'0 0.0
2015-Jan-17 15:33N 43°24' E 004°55'0 0.0
2015-Jan-17 14:27N 43°24' E 004°55'0 0.0
2015-Jan-17 13:33N 43°24' E 004°55'0 0.0
2015-Jan-17 12:33N 43°25' E 004°55'0 0.0
2015-Jan-17 11:33N 43°24' E 004°55'0 0.0
2015-Jan-17 10:33N 43°25' E 004°55'0 0.0
2015-Jan-17 09:27N 43°25' E 004°55'0 0.0
2015-Jan-17 08:33N 43°25' E 004°55'0 0.0
2015-Jan-17 07:33N 43°25' E 004°55'0 0.0
2015-Jan-17 06:33N 43°25' E 004°55'0 0.0
2015-Jan-17 05:27N 43°25' E 004°55'0 0.0
2015-Jan-17 04:33N 43°25' E 004°55'0 0.0
2015-Jan-17 03:30N 43°25' E 004°55'0 0.0
2015-Jan-17 02:33N 43°25' E 004°55'0 0.0
2015-Jan-17 01:33N 43°25' E 004°55'0 0.0
2015-Jan-17 00:24N 43°25' E 004°55'0 0.0
2015-Jan-16 23:33N 43°25' E 004°55'0 0.0
2015-Jan-16 22:33N 43°25' E 004°55'0 0.0
2015-Jan-16 21:33N 43°25' E 004°55'0 0.0
2015-Jan-16 20:33N 43°25' E 004°55'0 0.0
2015-Jan-16 19:33N 43°25' E 004°55'0 0.1
2015-Jan-16 18:33N 43°25' E 004°55'5 5.1
2015-Jan-16 17:34N 43°20' E 004°59'  

Dump ship's entire track history